Terminal Aerodrome Forecast
Issued by NWS Central Illinois

Home | Current Version | Previous Version | Text Only | Print | Product List | Glossary On
Versions: 1 2 3 4 5 6 7 8 9 10 11 12 13 14 15 16 17 18 19 20 21 22
000
FTUS43 KILX 272300
TAFSPI
TAF
KSPI 272325Z 2800/2824 03005KT P6SM SCT040 BKN150
     FM280800 06004KT 6SM BR VCSH SCT040 BKN150
     FM281400 13007KT P6SM VCTS SCT040CB BKN150=

USA.gov is the U.S. government's official web portal to all federal, state and local government web resources and services.